Duncan Island — C6JS — position and weather

sailwx.info

Track history (hours):
 
Tides and Currents Weather Stations Pressure Air Temp Water Temp Dewpoint Dewpoint Depression Visibility Wind Speed Wind Dir Waves Ship Positions

Duncan Island

Last reported at 2019-Jun-16 10:23 UTC. Time now 2019-Jun-19 00:54 UTC.
Position N 34°60' E 129°03'.

Type: Ship. MMSI: 308704000.

Date/timePositionNaut miles runAvg speedWind from/ knotsBaromVisibWave heightAir tempDewpointWater temp
2019-Jun-16 10:23N 34°60' E 129°03'4 0.2
2019-Jun-15 17:06N 35°03' E 129°01'111.0
2019-Jun-15 17:01N 35°02' E 129°02'5 9.2
2019-Jun-15 16:31N 34°59' E 129°06'711.1
2019-Jun-15 15:52N 34°58' E 129°14'28910.6
2019-Jun-14 12:40N 33°50' E 134°55'316.1
2019-Jun-14 12:30N 33°52' E 134°56'917.3
2019-Jun-14 12:00N 34°01' E 134°57'917.7
2019-Jun-14 11:30N 34°10' E 134°57'5 9.9
2019-Jun-14 11:00N 34°15' E 134°58'815.6
2019-Jun-14 10:30N 34°22' E 135°01'917.5
2019-Jun-14 10:00N 34°29' E 135°08'918.2
2019-Jun-14 09:30N 34°36' E 135°15'5 9.2
2019-Jun-14 09:00N 34°40' E 135°14'0 0.5
2019-Jun-14 08:30N 34°40' E 135°13'0 0.0
2019-Jun-14 08:00N 34°40' E 135°13'0 0.0
2019-Jun-14 07:24N 34°40' E 135°13'0 0.0
2019-Jun-14 06:54N 34°40' E 135°13'0 0.0
2019-Jun-14 06:30N 34°40' E 135°13'0 0.0
2019-Jun-14 05:54N 34°40' E 135°13'0 0.0
2019-Jun-14 05:24N 34°40' E 135°13'0 0.0
2019-Jun-14 05:00N 34°40' E 135°13'0 0.0
2019-Jun-14 04:30N 34°40' E 135°13'0 0.0
2019-Jun-14 04:00N 34°40' E 135°13'0 0.0
2019-Jun-14 03:30N 34°40' E 135°13'0 0.0
2019-Jun-14 03:00N 34°40' E 135°13'0 0.0
2019-Jun-14 02:30N 34°40' E 135°13'0 0.0
2019-Jun-14 02:00N 34°40' E 135°13'0 0.0
2019-Jun-14 01:24N 34°40' E 135°13'0 0.0
2019-Jun-14 01:00N 34°40' E 135°13'0 0.0
2019-Jun-14 00:30N 34°40' E 135°13'0 0.0
2019-Jun-14 00:00N 34°40' E 135°13'0 0.0
2019-Jun-13 23:30N 34°40' E 135°13'0 0.4
2019-Jun-13 23:00N 34°40' E 135°13'1 2.6
2019-Jun-13 22:30N 34°40' E 135°15'3 5.2
2019-Jun-13 22:01N 34°39' E 135°18'0 0.2
2019-Jun-13 21:29N 34°39' E 135°18'0 0.0
2019-Jun-13 20:59N 34°39' E 135°18'0 0.0
2019-Jun-13 20:29N 34°39' E 135°18'0 0.0
2019-Jun-13 19:59N 34°39' E 135°18'0 0.0
2019-Jun-13 19:29N 34°39' E 135°18'0 0.0
2019-Jun-13 18:59N 34°39' E 135°18'0 0.0
2019-Jun-13 18:29N 34°39' E 135°18'0 0.0
2019-Jun-13 18:00N 34°39' E 135°18'0 0.1
2019-Jun-13 17:30N 34°39' E 135°18'0 0.1
2019-Jun-13 17:00N 34°39' E 135°18'0 0.0
2019-Jun-13 16:30N 34°39' E 135°18'0 0.0
2019-Jun-13 16:00N 34°39' E 135°18'0 0.1
2019-Jun-13 15:30N 34°39' E 135°18'0 0.1
2019-Jun-13 15:00N 34°39' E 135°18'0 0.0
2019-Jun-13 14:30N 34°39' E 135°18'0 0.0
2019-Jun-13 14:00N 34°39' E 135°18'0 0.0
2019-Jun-13 13:30N 34°39' E 135°18'0 0.1
2019-Jun-13 13:00N 34°39' E 135°18'0 0.0
2019-Jun-13 12:30N 34°39' E 135°18'0 0.0
2019-Jun-13 12:00N 34°39' E 135°18'0 0.1
2019-Jun-13 11:30N 34°39' E 135°18'0 0.0
2019-Jun-13 11:00N 34°39' E 135°18'0 0.0
2019-Jun-13 10:30N 34°39' E 135°18'0 0.0
2019-Jun-13 10:00N 34°39' E 135°18'0 0.0
2019-Jun-13 09:30N 34°39' E 135°18'0 0.0
2019-Jun-13 09:00N 34°39' E 135°18'0 0.0
2019-Jun-13 08:30N 34°39' E 135°18'0 0.0
2019-Jun-13 08:00N 34°39' E 135°18'0 0.1
2019-Jun-13 07:30N 34°39' E 135°18'0 0.0
2019-Jun-13 07:00N 34°39' E 135°18'0 0.0
2019-Jun-13 06:31N 34°39' E 135°18'0 0.0
2019-Jun-13 06:00N 34°39' E 135°18'0 0.0
2019-Jun-13 05:30N 34°39' E 135°18'0 0.0
2019-Jun-13 05:00N 34°39' E 135°18'0 0.0
2019-Jun-13 04:30N 34°39' E 135°18'0 0.0
2019-Jun-13 04:00N 34°39' E 135°18'0 0.0
2019-Jun-13 03:30N 34°39' E 135°18'0 0.0
2019-Jun-13 03:00N 34°39' E 135°18'0 0.0
2019-Jun-13 02:30N 34°39' E 135°18'0 0.0
2019-Jun-13 02:00N 34°39' E 135°18'0 0.2
2019-Jun-13 01:30N 34°39' E 135°18'4 7.3
2019-Jun-13 01:00N 34°36' E 135°15'918.1
2019-Jun-13 00:30N 34°29' E 135°09'1019.8
2019-Jun-13 00:00N 34°20' E 135°02'917.6
2019-Jun-12 23:30N 34°12' E 134°59'5 9.5
2019-Jun-12 23:00N 34°07' E 134°58'611.9
2019-Jun-12 22:30N 34°01' E 134°57'713.5
2019-Jun-12 22:00N 33°55' E 134°57'713.8
2019-Jun-12 21:30N 33°48' E 134°58'815.3
2019-Jun-12 21:00N 33°41' E 135°03'815.3
2019-Jun-12 20:30N 33°34' E 135°08'23913.9
2019-Jun-12 03:19N 35°01' E 139°37'411.4
2019-Jun-12 03:00N 35°03' E 139°41'815.0
2019-Jun-12 02:29N 35°10' E 139°45'1212.1
2019-Jun-12 01:30N 35°21' E 139°42'713.3
2019-Jun-12 01:00N 35°27' E 139°47'714.4
2019-Jun-12 00:30N 35°33' E 139°50'3 3.1
2019-Jun-11 23:28N 35°36' E 139°48'0 0.0
2019-Jun-11 22:28N 35°36' E 139°48'0 0.0
2019-Jun-11 21:52N 35°36' E 139°48'0 0.0
2019-Jun-11 21:28N 35°36' E 139°48'0 0.0
2019-Jun-11 20:52N 35°36' E 139°48'0 0.0
2019-Jun-11 20:28N 35°36' E 139°48'0 0.0
2019-Jun-11 19:58N 35°36' E 139°48'0 0.0
2019-Jun-11 19:22N 35°36' E 139°48'0 0.0
2019-Jun-11 18:46N 35°36' E 139°48'0 0.0
2019-Jun-11 18:28N 35°36' E 139°48'0 0.0
2019-Jun-11 17:58N 35°36' E 139°48'0 0.0
2019-Jun-11 17:28N 35°36' E 139°48'0 0.0
2019-Jun-11 16:58N 35°36' E 139°48'0 0.0
2019-Jun-11 16:28N 35°36' E 139°48'0 0.0
2019-Jun-11 15:40N 35°36' E 139°48'0 0.0
2019-Jun-11 15:22N 35°36' E 139°48'0 0.0
2019-Jun-11 14:58N 35°36' E 139°48'0 0.0
2019-Jun-11 14:28N 35°36' E 139°48'0 0.0
2019-Jun-11 13:58N 35°36' E 139°48'0 0.0
2019-Jun-11 13:28N 35°36' E 139°48'0 0.0
2019-Jun-11 12:52N 35°36' E 139°48'0 0.0
2019-Jun-11 12:28N 35°36' E 139°48'0 0.0
2019-Jun-11 11:52N 35°36' E 139°48'0 0.0
2019-Jun-11 11:28N 35°36' E 139°48'0 0.0
2019-Jun-11 10:58N 35°36' E 139°48'0 0.0
2019-Jun-11 10:28N 35°36' E 139°48'0 0.0
2019-Jun-11 07:54N 35°36' E 139°48'0 0.0
2019-Jun-11 05:45N 35°36' E 139°48'0 0.0
2019-Jun-11 05:24N 35°36' E 139°48'0 0.0
2019-Jun-11 04:33N 35°36' E 139°48'0 0.0
2019-Jun-11 02:39N 35°36' E 139°48'0 0.0
2019-Jun-11 02:09N 35°36' E 139°48'0 0.0
2019-Jun-10 22:06N 35°36' E 139°48'0 0.0
2019-Jun-10 21:06N 35°36' E 139°48'0 0.0
2019-Jun-10 12:09N 35°36' E 139°48'0 0.0
2019-Jun-10 09:03N 35°36' E 139°48'0 0.0
2019-Jun-10 08:57N 35°36' E 139°48'0 0.0
2019-Jun-10 07:51N 35°36' E 139°48'0 0.0
2019-Jun-10 07:27N 35°36' E 139°48'0 0.0
2019-Jun-10 06:57N 35°36' E 139°48'0 0.0
2019-Jun-10 06:15N 35°36' E 139°48'0 0.0
2019-Jun-10 05:39N 35°36' E 139°48'0 0.0
2019-Jun-10 05:27N 35°36' E 139°48'0 0.0
2019-Jun-10 04:45N 35°36' E 139°48'0 0.0
2019-Jun-10 04:21N 35°36' E 139°48'0 0.0
2019-Jun-10 03:53N 35°36' E 139°48'0 0.0
2019-Jun-10 03:26N 35°36' E 139°48'0 0.0
2019-Jun-10 02:50N 35°36' E 139°48'0 0.0
2019-Jun-10 02:26N 35°36' E 139°48'0 0.0
2019-Jun-10 01:59N 35°36' E 139°48'0 0.0
2019-Jun-10 01:20N 35°36' E 139°48'0 0.0
2019-Jun-10 00:59N 35°36' E 139°48'0 0.0
2019-Jun-10 00:26N 35°36' E 139°48'0 0.0
2019-Jun-09 23:44N 35°36' E 139°48'0 0.0
2019-Jun-09 22:29N 35°36' E 139°48'1 1.6
2019-Jun-09 22:00N 35°35' E 139°47'3 6.6
2019-Jun-09 21:30N 35°34' E 139°51'0 0.5
2019-Jun-09 20:59N 35°34' E 139°51'0 0.0
2019-Jun-09 20:29N 35°34' E 139°51'0 0.0
2019-Jun-09 19:50N 35°34' E 139°51'0 0.0
2019-Jun-09 19:29N 35°34' E 139°51'0 0.0
2019-Jun-09 18:59N 35°34' E 139°51'0 0.1
2019-Jun-09 18:23N 35°34' E 139°51'0 0.0
2019-Jun-09 17:44N 35°34' E 139°51'0 0.0
2019-Jun-09 17:17N 35°34' E 139°51'0 0.0
2019-Jun-09 16:59N 35°34' E 139°51'0 0.0
2019-Jun-09 16:14N 35°34' E 139°51'0 0.0
2019-Jun-09 15:59N 35°34' E 139°51'0 0.0
2019-Jun-09 15:20N 35°34' E 139°51'0 0.0
2019-Jun-09 14:59N 35°34' E 139°51'0 0.0
2019-Jun-09 14:26N 35°34' E 139°51'0 0.0
2019-Jun-09 13:58N 35°34' E 139°51'0 0.0
2019-Jun-09 13:28N 35°34' E 139°51'0 0.0
2019-Jun-09 12:25N 35°34' E 139°51'0 0.0
2019-Jun-09 11:55N 35°34' E 139°51'0 0.0
2019-Jun-09 11:28N 35°34' E 139°51'0 0.1
2019-Jun-09 10:55N 35°34' E 139°51'0 0.1
2019-Jun-09 10:25N 35°34' E 139°51'0 0.0
2019-Jun-09 09:58N 35°34' E 139°51'0 0.0
2019-Jun-09 09:28N 35°34' E 139°51'0 0.0
2019-Jun-09 08:58N 35°34' E 139°51'0 0.1
2019-Jun-09 08:16N 35°34' E 139°51'0 0.1
2019-Jun-09 07:46N 35°34' E 139°51'0 0.0
2019-Jun-09 07:22N 35°34' E 139°51'0 0.0
2019-Jun-09 06:58N 35°34' E 139°51'0 0.1
2019-Jun-09 05:58N 35°34' E 139°51'0 0.0
2019-Jun-09 05:25N 35°34' E 139°51'0 0.0
2019-Jun-09 04:31N 35°34' E 139°51'0 0.0
2019-Jun-09 02:22N 35°34' E 139°51'0 0.0
2019-Jun-09 01:43N 35°34' E 139°51'0 0.0
2019-Jun-09 01:28N 35°34' E 139°51'0 0.0
2019-Jun-09 00:55N 35°34' E 139°51'0 0.0
2019-Jun-09 00:28N 35°34' E 139°51'0 0.1
2019-Jun-08 23:58N 35°34' E 139°51'0 0.1
2019-Jun-08 23:25N 35°34' E 139°51'0 0.1
2019-Jun-08 22:58N 35°34' E 139°51'0 0.1
2019-Jun-08 22:28N 35°34' E 139°51'0 0.1
2019-Jun-08 21:58N 35°34' E 139°51'0 0.0
2019-Jun-08 21:28N 35°34' E 139°51'0 0.0
2019-Jun-08 20:58N 35°34' E 139°51'0 0.1
2019-Jun-08 20:28N 35°34' E 139°51'0 0.1
2019-Jun-08 19:58N 35°34' E 139°51'0 0.1
2019-Jun-08 19:28N 35°34' E 139°51'0 0.0
2019-Jun-08 18:58N 35°34' E 139°51'0 0.1
2019-Jun-08 18:30N 35°34' E 139°51'0 0.0
2019-Jun-08 18:00N 35°34' E 139°51'0 0.1
2019-Jun-08 17:30N 35°34' E 139°51'0 0.1
2019-Jun-08 17:00N 35°34' E 139°51'0 0.1
2019-Jun-08 16:30N 35°34' E 139°51'0 0.0
2019-Jun-08 16:00N 35°34' E 139°51'0 0.0
2019-Jun-08 15:30N 35°34' E 139°51'0 0.0
2019-Jun-08 14:59N 35°34' E 139°51'0 0.0
2019-Jun-08 14:29N 35°34' E 139°51'0 0.0
2019-Jun-08 13:59N 35°34' E 139°51'0 0.0
2019-Jun-08 13:29N 35°34' E 139°51'0 0.0
2019-Jun-08 12:59N 35°34' E 139°51'0 0.1
2019-Jun-08 12:29N 35°34' E 139°51'0 0.1
2019-Jun-08 11:59N 35°34' E 139°51'0 0.0
2019-Jun-08 11:29N 35°34' E 139°51'0 0.0
2019-Jun-08 10:59N 35°34' E 139°51'0 0.0
2019-Jun-08 10:26N 35°34' E 139°51'0 0.0
2019-Jun-08 09:53N 35°34' E 139°51'0 0.0
2019-Jun-08 09:29N 35°34' E 139°51'0 0.0
2019-Jun-08 08:59N 35°34' E 139°51'0 0.0
2019-Jun-08 08:26N 35°34' E 139°51'0 0.0
2019-Jun-08 07:59N 35°34' E 139°51'0 0.1
2019-Jun-08 07:29N 35°34' E 139°51'0 0.0
2019-Jun-08 06:59N 35°34' E 139°51'0 0.0
2019-Jun-08 06:29N 35°34' E 139°51'0 0.0
2019-Jun-08 05:59N 35°34' E 139°51'0 0.1
2019-Jun-08 05:20N 35°34' E 139°51'0 0.0
2019-Jun-08 04:59N 35°34' E 139°51'0 0.0
2019-Jun-08 04:14N 35°34' E 139°51'0 0.1
2019-Jun-08 03:53N 35°34' E 139°51'0 0.0
2019-Jun-08 03:28N 35°34' E 139°51'0 0.0
2019-Jun-08 02:57N 35°34' E 139°51'0 0.3
2019-Jun-08 02:30N 35°34' E 139°51'3 5.5
2019-Jun-08 02:00N 35°31' E 139°52'713.5
2019-Jun-08 01:31N 35°26' E 139°48'612.0
2019-Jun-08 01:00N 35°20' E 139°45'510.9
2019-Jun-08 00:31N 35°15' E 139°47'612.0
2019-Jun-08 00:00N 35°09' E 139°47'3 5.9
2019-Jun-07 23:29N 35°06' E 139°46'3 6.3
2019-Jun-07 23:00N 35°04' E 139°43'4 6.4
2019-Jun-07 22:20N 35°00' E 139°41'6 8.1
2019-Jun-07 21:40N 34°56' E 139°36'3 1.4
2019-Jun-07 19:37N 34°53' E 139°36'  
Track history (hours):
 
Tides and Currents Weather Stations Pressure Air Temp Water Temp Dewpoint Dewpoint Depression Visibility Wind Speed Wind Dir Waves Ship Positions

Duncan Island

Last reported at 2019-Jun-16 10:23 UTC. Time now 2019-Jun-19 00:54 UTC.
Position N 34°60' E 129°03'.

Type: Ship. MMSI: 308704000.

Date/timePositionNaut miles runAvg speedWind from/ knotsBaromVisibWave heightAir tempDewpointWater temp
2019-Jun-16 10:23N 34°60' E 129°03'4 0.2
2019-Jun-15 17:06N 35°03' E 129°01'111.0
2019-Jun-15 17:01N 35°02' E 129°02'5 9.2
2019-Jun-15 16:31N 34°59' E 129°06'711.1
2019-Jun-15 15:52N 34°58' E 129°14'28910.6
2019-Jun-14 12:40N 33°50' E 134°55'316.1
2019-Jun-14 12:30N 33°52' E 134°56'917.3
2019-Jun-14 12:00N 34°01' E 134°57'917.7
2019-Jun-14 11:30N 34°10' E 134°57'5 9.9
2019-Jun-14 11:00N 34°15' E 134°58'815.6
2019-Jun-14 10:30N 34°22' E 135°01'917.5
2019-Jun-14 10:00N 34°29' E 135°08'918.2
2019-Jun-14 09:30N 34°36' E 135°15'5 9.2
2019-Jun-14 09:00N 34°40' E 135°14'0 0.5
2019-Jun-14 08:30N 34°40' E 135°13'0 0.0
2019-Jun-14 08:00N 34°40' E 135°13'0 0.0
2019-Jun-14 07:24N 34°40' E 135°13'0 0.0
2019-Jun-14 06:54N 34°40' E 135°13'0 0.0
2019-Jun-14 06:30N 34°40' E 135°13'0 0.0
2019-Jun-14 05:54N 34°40' E 135°13'0 0.0
2019-Jun-14 05:24N 34°40' E 135°13'0 0.0
2019-Jun-14 05:00N 34°40' E 135°13'0 0.0
2019-Jun-14 04:30N 34°40' E 135°13'0 0.0
2019-Jun-14 04:00N 34°40' E 135°13'0 0.0
2019-Jun-14 03:30N 34°40' E 135°13'0 0.0
2019-Jun-14 03:00N 34°40' E 135°13'0 0.0
2019-Jun-14 02:30N 34°40' E 135°13'0 0.0
2019-Jun-14 02:00N 34°40' E 135°13'0 0.0
2019-Jun-14 01:24N 34°40' E 135°13'0 0.0
2019-Jun-14 01:00N 34°40' E 135°13'0 0.0
2019-Jun-14 00:30N 34°40' E 135°13'0 0.0
2019-Jun-14 00:00N 34°40' E 135°13'0 0.0
2019-Jun-13 23:30N 34°40' E 135°13'0 0.4
2019-Jun-13 23:00N 34°40' E 135°13'1 2.6
2019-Jun-13 22:30N 34°40' E 135°15'3 5.2
2019-Jun-13 22:01N 34°39' E 135°18'0 0.2
2019-Jun-13 21:29N 34°39' E 135°18'0 0.0
2019-Jun-13 20:59N 34°39' E 135°18'0 0.0
2019-Jun-13 20:29N 34°39' E 135°18'0 0.0
2019-Jun-13 19:59N 34°39' E 135°18'0 0.0
2019-Jun-13 19:29N 34°39' E 135°18'0 0.0
2019-Jun-13 18:59N 34°39' E 135°18'0 0.0
2019-Jun-13 18:29N 34°39' E 135°18'0 0.0
2019-Jun-13 18:00N 34°39' E 135°18'0 0.1
2019-Jun-13 17:30N 34°39' E 135°18'0 0.1
2019-Jun-13 17:00N 34°39' E 135°18'0 0.0
2019-Jun-13 16:30N 34°39' E 135°18'0 0.0
2019-Jun-13 16:00N 34°39' E 135°18'0 0.1
2019-Jun-13 15:30N 34°39' E 135°18'0 0.1
2019-Jun-13 15:00N 34°39' E 135°18'0 0.0
2019-Jun-13 14:30N 34°39' E 135°18'0 0.0
2019-Jun-13 14:00N 34°39' E 135°18'0 0.0
2019-Jun-13 13:30N 34°39' E 135°18'0 0.1
2019-Jun-13 13:00N 34°39' E 135°18'0 0.0
2019-Jun-13 12:30N 34°39' E 135°18'0 0.0
2019-Jun-13 12:00N 34°39' E 135°18'0 0.1
2019-Jun-13 11:30N 34°39' E 135°18'0 0.0
2019-Jun-13 11:00N 34°39' E 135°18'0 0.0
2019-Jun-13 10:30N 34°39' E 135°18'0 0.0
2019-Jun-13 10:00N 34°39' E 135°18'0 0.0
2019-Jun-13 09:30N 34°39' E 135°18'0 0.0
2019-Jun-13 09:00N 34°39' E 135°18'0 0.0
2019-Jun-13 08:30N 34°39' E 135°18'0 0.0
2019-Jun-13 08:00N 34°39' E 135°18'0 0.1
2019-Jun-13 07:30N 34°39' E 135°18'0 0.0
2019-Jun-13 07:00N 34°39' E 135°18'0 0.0
2019-Jun-13 06:31N 34°39' E 135°18'0 0.0
2019-Jun-13 06:00N 34°39' E 135°18'0 0.0
2019-Jun-13 05:30N 34°39' E 135°18'0 0.0
2019-Jun-13 05:00N 34°39' E 135°18'0 0.0
2019-Jun-13 04:30N 34°39' E 135°18'0 0.0
2019-Jun-13 04:00N 34°39' E 135°18'0 0.0
2019-Jun-13 03:30N 34°39' E 135°18'0 0.0
2019-Jun-13 03:00N 34°39' E 135°18'0 0.0
2019-Jun-13 02:30N 34°39' E 135°18'0 0.0
2019-Jun-13 02:00N 34°39' E 135°18'0 0.2
2019-Jun-13 01:30N 34°39' E 135°18'4 7.3
2019-Jun-13 01:00N 34°36' E 135°15'918.1
2019-Jun-13 00:30N 34°29' E 135°09'1019.8
2019-Jun-13 00:00N 34°20' E 135°02'917.6
2019-Jun-12 23:30N 34°12' E 134°59'5 9.5
2019-Jun-12 23:00N 34°07' E 134°58'611.9
2019-Jun-12 22:30N 34°01' E 134°57'713.5
2019-Jun-12 22:00N 33°55' E 134°57'713.8
2019-Jun-12 21:30N 33°48' E 134°58'815.3
2019-Jun-12 21:00N 33°41' E 135°03'815.3
2019-Jun-12 20:30N 33°34' E 135°08'23913.9
2019-Jun-12 03:19N 35°01' E 139°37'411.4
2019-Jun-12 03:00N 35°03' E 139°41'815.0
2019-Jun-12 02:29N 35°10' E 139°45'1212.1
2019-Jun-12 01:30N 35°21' E 139°42'713.3
2019-Jun-12 01:00N 35°27' E 139°47'714.4
2019-Jun-12 00:30N 35°33' E 139°50'3 3.1
2019-Jun-11 23:28N 35°36' E 139°48'0 0.0
2019-Jun-11 22:28N 35°36' E 139°48'0 0.0
2019-Jun-11 21:52N 35°36' E 139°48'0 0.0
2019-Jun-11 21:28N 35°36' E 139°48'0 0.0
2019-Jun-11 20:52N 35°36' E 139°48'0 0.0
2019-Jun-11 20:28N 35°36' E 139°48'0 0.0
2019-Jun-11 19:58N 35°36' E 139°48'0 0.0
2019-Jun-11 19:22N 35°36' E 139°48'0 0.0
2019-Jun-11 18:46N 35°36' E 139°48'0 0.0
2019-Jun-11 18:28N 35°36' E 139°48'0 0.0
2019-Jun-11 17:58N 35°36' E 139°48'0 0.0
2019-Jun-11 17:28N 35°36' E 139°48'0 0.0
2019-Jun-11 16:58N 35°36' E 139°48'0 0.0
2019-Jun-11 16:28N 35°36' E 139°48'0 0.0
2019-Jun-11 15:40N 35°36' E 139°48'0 0.0
2019-Jun-11 15:22N 35°36' E 139°48'0 0.0
2019-Jun-11 14:58N 35°36' E 139°48'0 0.0
2019-Jun-11 14:28N 35°36' E 139°48'0 0.0
2019-Jun-11 13:58N 35°36' E 139°48'0 0.0
2019-Jun-11 13:28N 35°36' E 139°48'0 0.0
2019-Jun-11 12:52N 35°36' E 139°48'0 0.0
2019-Jun-11 12:28N 35°36' E 139°48'0 0.0
2019-Jun-11 11:52N 35°36' E 139°48'0 0.0
2019-Jun-11 11:28N 35°36' E 139°48'0 0.0
2019-Jun-11 10:58N 35°36' E 139°48'0 0.0
2019-Jun-11 10:28N 35°36' E 139°48'0 0.0
2019-Jun-11 07:54N 35°36' E 139°48'0 0.0
2019-Jun-11 05:45N 35°36' E 139°48'0 0.0
2019-Jun-11 05:24N 35°36' E 139°48'0 0.0
2019-Jun-11 04:33N 35°36' E 139°48'0 0.0
2019-Jun-11 02:39N 35°36' E 139°48'0 0.0
2019-Jun-11 02:09N 35°36' E 139°48'0 0.0
2019-Jun-10 22:06N 35°36' E 139°48'0 0.0
2019-Jun-10 21:06N 35°36' E 139°48'0 0.0
2019-Jun-10 12:09N 35°36' E 139°48'0 0.0
2019-Jun-10 09:03N 35°36' E 139°48'0 0.0
2019-Jun-10 08:57N 35°36' E 139°48'0 0.0
2019-Jun-10 07:51N 35°36' E 139°48'0 0.0
2019-Jun-10 07:27N 35°36' E 139°48'0 0.0
2019-Jun-10 06:57N 35°36' E 139°48'0 0.0
2019-Jun-10 06:15N 35°36' E 139°48'0 0.0
2019-Jun-10 05:39N 35°36' E 139°48'0 0.0
2019-Jun-10 05:27N 35°36' E 139°48'0 0.0
2019-Jun-10 04:45N 35°36' E 139°48'0 0.0
2019-Jun-10 04:21N 35°36' E 139°48'0 0.0
2019-Jun-10 03:53N 35°36' E 139°48'0 0.0
2019-Jun-10 03:26N 35°36' E 139°48'0 0.0
2019-Jun-10 02:50N 35°36' E 139°48'0 0.0
2019-Jun-10 02:26N 35°36' E 139°48'0 0.0
2019-Jun-10 01:59N 35°36' E 139°48'0 0.0
2019-Jun-10 01:20N 35°36' E 139°48'0 0.0
2019-Jun-10 00:59N 35°36' E 139°48'0 0.0
2019-Jun-10 00:26N 35°36' E 139°48'0 0.0
2019-Jun-09 23:44N 35°36' E 139°48'0 0.0
2019-Jun-09 22:29N 35°36' E 139°48'1 1.6
2019-Jun-09 22:00N 35°35' E 139°47'3 6.6
2019-Jun-09 21:30N 35°34' E 139°51'0 0.5
2019-Jun-09 20:59N 35°34' E 139°51'0 0.0
2019-Jun-09 20:29N 35°34' E 139°51'0 0.0
2019-Jun-09 19:50N 35°34' E 139°51'0 0.0
2019-Jun-09 19:29N 35°34' E 139°51'0 0.0
2019-Jun-09 18:59N 35°34' E 139°51'0 0.1
2019-Jun-09 18:23N 35°34' E 139°51'0 0.0
2019-Jun-09 17:44N 35°34' E 139°51'0 0.0
2019-Jun-09 17:17N 35°34' E 139°51'0 0.0
2019-Jun-09 16:59N 35°34' E 139°51'0 0.0
2019-Jun-09 16:14N 35°34' E 139°51'0 0.0
2019-Jun-09 15:59N 35°34' E 139°51'0 0.0
2019-Jun-09 15:20N 35°34' E 139°51'0 0.0
2019-Jun-09 14:59N 35°34' E 139°51'0 0.0
2019-Jun-09 14:26N 35°34' E 139°51'0 0.0
2019-Jun-09 13:58N 35°34' E 139°51'0 0.0
2019-Jun-09 13:28N 35°34' E 139°51'0 0.0
2019-Jun-09 12:25N 35°34' E 139°51'0 0.0
2019-Jun-09 11:55N 35°34' E 139°51'0 0.0
2019-Jun-09 11:28N 35°34' E 139°51'0 0.1
2019-Jun-09 10:55N 35°34' E 139°51'0 0.1
2019-Jun-09 10:25N 35°34' E 139°51'0 0.0
2019-Jun-09 09:58N 35°34' E 139°51'0 0.0
2019-Jun-09 09:28N 35°34' E 139°51'0 0.0
2019-Jun-09 08:58N 35°34' E 139°51'0 0.1
2019-Jun-09 08:16N 35°34' E 139°51'0 0.1
2019-Jun-09 07:46N 35°34' E 139°51'0 0.0
2019-Jun-09 07:22N 35°34' E 139°51'0 0.0
2019-Jun-09 06:58N 35°34' E 139°51'0 0.1
2019-Jun-09 05:58N 35°34' E 139°51'0 0.0
2019-Jun-09 05:25N 35°34' E 139°51'0 0.0
2019-Jun-09 04:31N 35°34' E 139°51'0 0.0
2019-Jun-09 02:22N 35°34' E 139°51'0 0.0
2019-Jun-09 01:43N 35°34' E 139°51'0 0.0
2019-Jun-09 01:28N 35°34' E 139°51'0 0.0
2019-Jun-09 00:55N 35°34' E 139°51'0 0.0
2019-Jun-09 00:28N 35°34' E 139°51'0 0.1
2019-Jun-08 23:58N 35°34' E 139°51'0 0.1
2019-Jun-08 23:25N 35°34' E 139°51'0 0.1
2019-Jun-08 22:58N 35°34' E 139°51'0 0.1
2019-Jun-08 22:28N 35°34' E 139°51'0 0.1
2019-Jun-08 21:58N 35°34' E 139°51'0 0.0
2019-Jun-08 21:28N 35°34' E 139°51'0 0.0
2019-Jun-08 20:58N 35°34' E 139°51'0 0.1
2019-Jun-08 20:28N 35°34' E 139°51'0 0.1
2019-Jun-08 19:58N 35°34' E 139°51'0 0.1
2019-Jun-08 19:28N 35°34' E 139°51'0 0.0
2019-Jun-08 18:58N 35°34' E 139°51'0 0.1
2019-Jun-08 18:30N 35°34' E 139°51'0 0.0
2019-Jun-08 18:00N 35°34' E 139°51'0 0.1
2019-Jun-08 17:30N 35°34' E 139°51'0 0.1
2019-Jun-08 17:00N 35°34' E 139°51'0 0.1
2019-Jun-08 16:30N 35°34' E 139°51'0 0.0
2019-Jun-08 16:00N 35°34' E 139°51'0 0.0
2019-Jun-08 15:30N 35°34' E 139°51'0 0.0
2019-Jun-08 14:59N 35°34' E 139°51'0 0.0
2019-Jun-08 14:29N 35°34' E 139°51'0 0.0
2019-Jun-08 13:59N 35°34' E 139°51'0 0.0
2019-Jun-08 13:29N 35°34' E 139°51'0 0.0
2019-Jun-08 12:59N 35°34' E 139°51'0 0.1
2019-Jun-08 12:29N 35°34' E 139°51'0 0.1
2019-Jun-08 11:59N 35°34' E 139°51'0 0.0
2019-Jun-08 11:29N 35°34' E 139°51'0 0.0
2019-Jun-08 10:59N 35°34' E 139°51'0 0.0
2019-Jun-08 10:26N 35°34' E 139°51'0 0.0
2019-Jun-08 09:53N 35°34' E 139°51'0 0.0
2019-Jun-08 09:29N 35°34' E 139°51'0 0.0
2019-Jun-08 08:59N 35°34' E 139°51'0 0.0
2019-Jun-08 08:26N 35°34' E 139°51'0 0.0
2019-Jun-08 07:59N 35°34' E 139°51'0 0.1
2019-Jun-08 07:29N 35°34' E 139°51'0 0.0
2019-Jun-08 06:59N 35°34' E 139°51'0 0.0
2019-Jun-08 06:29N 35°34' E 139°51'0 0.0
2019-Jun-08 05:59N 35°34' E 139°51'0 0.1
2019-Jun-08 05:20N 35°34' E 139°51'0 0.0
2019-Jun-08 04:59N 35°34' E 139°51'0 0.0
2019-Jun-08 04:14N 35°34' E 139°51'0 0.1
2019-Jun-08 03:53N 35°34' E 139°51'0 0.0
2019-Jun-08 03:28N 35°34' E 139°51'0 0.0
2019-Jun-08 02:57N 35°34' E 139°51'0 0.3
2019-Jun-08 02:30N 35°34' E 139°51'3 5.5
2019-Jun-08 02:00N 35°31' E 139°52'713.5
2019-Jun-08 01:31N 35°26' E 139°48'612.0
2019-Jun-08 01:00N 35°20' E 139°45'510.9
2019-Jun-08 00:31N 35°15' E 139°47'612.0
2019-Jun-08 00:00N 35°09' E 139°47'3 5.9
2019-Jun-07 23:29N 35°06' E 139°46'3 6.3
2019-Jun-07 23:00N 35°04' E 139°43'4 6.4
2019-Jun-07 22:20N 35°00' E 139°41'6 8.1
2019-Jun-07 21:40N 34°56' E 139°36'3 1.4
2019-Jun-07 19:37N 34°53' E 139°36'  

Dump ship's entire track history